createdAt,value
2022-12-29T00:01:02.095Z,0
2022-12-29T00:06:08.176Z,0
2022-12-29T00:11:14.268Z,0
2022-12-29T00:16:20.517Z,0
2022-12-29T00:26:32.677Z,0
2022-12-29T00:31:38.643Z,0
2022-12-29T00:36:44.773Z,0
2022-12-29T00:41:50.887Z,0
2022-12-29T00:46:57.048Z,0
2022-12-29T00:52:02.219Z,0
2022-12-29T00:57:08.311Z,0
2022-12-29T01:02:14.332Z,0
2022-12-29T01:07:20.255Z,0
2022-12-29T01:12:26.348Z,0
2022-12-29T01:17:32.528Z,0
2022-12-29T01:22:37.744Z,0
2022-12-29T01:27:42.768Z,0
2022-12-29T01:32:48.924Z,0
2022-12-29T01:37:54.836Z,0
2022-12-29T01:43:01.159Z,0
2022-12-29T01:48:07.191Z,0
2022-12-29T01:53:13.098Z,0
2022-12-29T01:58:19.193Z,0
2022-12-29T02:03:25.281Z,0
2022-12-29T02:08:31.374Z,0
2022-12-29T02:13:37.530Z,0
2022-12-29T02:18:43.769Z,0
2022-12-29T02:23:49.794Z,0
2022-12-29T02:28:55.877Z,0
2022-12-29T02:34:00.993Z,0
2022-12-29T02:39:07.120Z,0
2022-12-29T02:44:13.124Z,0
2022-12-29T02:49:19.270Z,0
2022-12-29T02:54:25.338Z,0
2022-12-29T02:59:31.386Z,0
2022-12-29T03:04:37.548Z,0
2022-12-29T03:09:42.708Z,0
2022-12-29T03:14:47.777Z,0
2022-12-29T03:19:53.823Z,0
2022-12-29T03:24:58.798Z,0
2022-12-29T03:35:09.990Z,0
2022-12-29T03:40:16.071Z,0
2022-12-29T03:45:22.169Z,0
2022-12-29T03:50:28.416Z,0
2022-12-29T03:55:34.500Z,0
2022-12-29T04:00:40.528Z,0
2022-12-29T04:05:46.515Z,0
2022-12-29T04:10:52.769Z,0
2022-12-29T04:15:58.721Z,0
2022-12-29T04:21:04.850Z,0
2022-12-29T04:26:11.069Z,0
2022-12-29T04:31:17.116Z,0
2022-12-29T04:36:22.134Z,0
2022-12-29T04:41:28.200Z,0
2022-12-29T04:46:34.485Z,0
2022-12-29T04:51:40.340Z,0
2022-12-29T04:56:46.429Z,0
2022-12-29T05:01:52.543Z,0
2022-12-29T05:06:58.628Z,0
2022-12-29T05:17:10.835Z,0
2022-12-29T05:22:15.895Z,0
2022-12-29T05:27:21.168Z,0
2022-12-29T05:32:27.254Z,0
2022-12-29T05:37:32.316Z,0
2022-12-29T05:42:37.457Z,0
2022-12-29T05:47:43.490Z,0
2022-12-29T05:52:49.493Z,0
2022-12-29T06:03:01.858Z,0
2022-12-29T06:08:07.931Z,0
2022-12-29T06:13:13.995Z,0
2022-12-29T06:18:19.935Z,0
2022-12-29T06:23:26.025Z,0
2022-12-29T06:33:38.280Z,0
2022-12-29T06:38:44.430Z,0
2022-12-29T06:43:49.399Z,0
2022-12-29T06:48:54.512Z,0
2022-12-29T06:54:00.750Z,0
2022-12-29T06:59:06.814Z,0
2022-12-29T07:09:18.873Z,4
2022-12-29T07:14:25.104Z,4
2022-12-29T07:19:31.211Z,8
2022-12-29T07:24:37.253Z,12
2022-12-29T07:29:43.406Z,16
2022-12-29T07:34:49.494Z,24
2022-12-29T07:39:55.400Z,36
2022-12-29T07:45:01.505Z,36
2022-12-29T07:50:07.574Z,48
2022-12-29T07:55:12.754Z,40
2022-12-29T08:00:18.836Z,44
2022-12-29T08:05:24.978Z,56
2022-12-29T08:10:30.976Z,48
2022-12-29T08:15:37.151Z,68
2022-12-29T08:20:43.234Z,48
2022-12-29T08:25:49.241Z,52
2022-12-29T08:30:55.464Z,56
2022-12-29T08:36:00.511Z,64
2022-12-29T08:41:05.678Z,84
2022-12-29T08:46:10.854Z,104
2022-12-29T08:51:15.953Z,128
2022-12-29T08:56:21.847Z,128
2022-12-29T09:01:28.140Z,160
2022-12-29T09:06:34.018Z,148
2022-12-29T09:11:40.111Z,120
2022-12-29T09:16:46.183Z,136
2022-12-29T09:21:52.283Z,164
2022-12-29T09:26:58.402Z,180
2022-12-29T09:32:04.483Z,184
2022-12-29T09:37:10.605Z,140
2022-12-29T09:42:16.730Z,152
2022-12-29T09:47:22.717Z,208
2022-12-29T09:52:28.987Z,248
2022-12-29T09:57:33.988Z,232
2022-12-29T10:02:40.186Z,248
2022-12-29T10:07:46.202Z,172
2022-12-29T10:12:52.400Z,220
2022-12-29T10:17:58.412Z,168
2022-12-29T10:23:04.528Z,260
2022-12-29T10:28:10.660Z,260
2022-12-29T10:33:15.569Z,252
2022-12-29T10:38:20.667Z,284
2022-12-29T10:43:25.790Z,248
2022-12-29T10:48:30.898Z,164
2022-12-29T10:53:36.994Z,172
2022-12-29T10:58:43.077Z,176
2022-12-29T11:03:49.151Z,164
2022-12-29T11:08:55.257Z,180
2022-12-29T11:14:01.337Z,148
2022-12-29T11:19:07.426Z,128
2022-12-29T11:24:13.511Z,136
2022-12-29T11:29:19.626Z,116
2022-12-29T11:34:25.690Z,104
2022-12-29T11:39:31.783Z,140
2022-12-29T11:44:37.876Z,136
2022-12-29T11:49:43.955Z,112
2022-12-29T11:54:49.069Z,108
2022-12-29T11:59:55.160Z,80
2022-12-29T12:05:01.252Z,56
2022-12-29T12:10:07.322Z,64
2022-12-29T12:15:13.421Z,72
2022-12-29T12:20:19.516Z,48
2022-12-29T12:25:25.605Z,112
2022-12-29T12:30:30.723Z,96
2022-12-29T12:35:35.817Z,128
2022-12-29T12:40:41.924Z,140
2022-12-29T12:45:47.028Z,76
2022-12-29T12:50:52.123Z,92
2022-12-29T12:55:58.210Z,172
2022-12-29T13:01:04.303Z,128
2022-12-29T13:06:10.442Z,116
2022-12-29T13:11:16.472Z,160
2022-12-29T13:16:22.567Z,144
2022-12-29T13:21:28.727Z,116
2022-12-29T13:26:34.743Z,96
2022-12-29T13:31:40.829Z,108
2022-12-29T13:41:53.109Z,108
2022-12-29T13:52:05.215Z,104
2022-12-29T13:57:10.312Z,84
2022-12-29T14:02:16.391Z,80
2022-12-29T14:12:27.588Z,60
2022-12-29T14:17:33.667Z,52
2022-12-29T14:22:39.770Z,56
2022-12-29T14:27:45.850Z,44
2022-12-29T14:32:51.951Z,36
2022-12-29T14:37:58.021Z,28
2022-12-29T14:43:04.119Z,20
2022-12-29T14:48:10.283Z,16
2022-12-29T14:53:16.296Z,12
2022-12-29T14:58:22.375Z,8
2022-12-29T15:03:28.472Z,8
2022-12-29T15:08:34.570Z,4
2022-12-29T15:13:39.660Z,0
2022-12-29T15:18:45.758Z,0
2022-12-29T15:23:51.844Z,0
2022-12-29T15:28:57.935Z,0
2022-12-29T15:34:04.028Z,0
2022-12-29T15:39:10.118Z,0
2022-12-29T15:44:16.205Z,0
2022-12-29T15:49:21.325Z,0
2022-12-29T15:54:26.433Z,0
2022-12-29T15:59:31.554Z,0
2022-12-29T16:04:36.641Z,0
2022-12-29T16:14:48.813Z,0
2022-12-29T16:19:54.905Z,0
2022-12-29T16:25:01.010Z,0
2022-12-29T16:30:07.082Z,0
2022-12-29T16:35:13.183Z,0
2022-12-29T16:40:19.265Z,0
2022-12-29T16:45:24.390Z,0
2022-12-29T16:50:30.458Z,0
2022-12-29T16:55:36.558Z,0
2022-12-29T17:00:42.640Z,0
2022-12-29T17:05:48.725Z,0
2022-12-29T17:10:54.824Z,0
2022-12-29T17:16:00.911Z,0
2022-12-29T17:21:06.992Z,0
2022-12-29T17:26:13.087Z,0
2022-12-29T17:31:19.173Z,0
2022-12-29T17:36:25.260Z,0
2022-12-29T17:41:31.346Z,0
2022-12-29T17:46:37.440Z,0
2022-12-29T17:51:42.551Z,0
2022-12-29T17:56:47.795Z,0
2022-12-29T18:01:53.748Z,0
2022-12-29T18:06:59.832Z,0
2022-12-29T18:12:04.952Z,0
2022-12-29T18:17:10.064Z,0
2022-12-29T18:22:16.152Z,0
2022-12-29T18:27:22.248Z,0
2022-12-29T18:32:28.329Z,0
2022-12-29T18:37:34.410Z,0
2022-12-29T18:42:40.504Z,0
2022-12-29T18:47:46.595Z,0
2022-12-29T18:52:52.785Z,0
2022-12-29T18:57:58.765Z,0
2022-12-29T19:03:04.860Z,0
2022-12-29T19:08:10.951Z,0
2022-12-29T19:13:17.031Z,0
2022-12-29T19:18:23.120Z,0
2022-12-29T19:23:28.230Z,0
2022-12-29T19:28:34.334Z,0
2022-12-29T19:33:40.408Z,0
2022-12-29T19:38:46.513Z,0
2022-12-29T19:43:52.575Z,0
2022-12-29T19:48:58.668Z,0
2022-12-29T19:54:04.777Z,0
2022-12-29T19:59:09.881Z,0
2022-12-29T20:04:14.976Z,0
2022-12-29T20:09:21.066Z,0
2022-12-29T20:14:27.379Z,0
2022-12-29T20:19:33.252Z,0
2022-12-29T20:24:39.415Z,0
2022-12-29T20:29:45.425Z,0
2022-12-29T20:34:51.525Z,0
2022-12-29T20:39:57.599Z,0
2022-12-29T20:45:03.684Z,0
2022-12-29T20:50:09.820Z,0
2022-12-29T20:55:15.876Z,0
2022-12-29T21:00:21.955Z,0
2022-12-29T21:05:28.049Z,0
2022-12-29T21:10:33.199Z,0
2022-12-29T21:15:39.408Z,0
2022-12-29T21:20:45.423Z,0
2022-12-29T21:25:51.425Z,0
2022-12-29T21:30:57.503Z,0
2022-12-29T21:41:09.676Z,0
2022-12-29T21:46:15.775Z,0
2022-12-29T21:51:20.884Z,0
2022-12-29T21:56:25.996Z,0
2022-12-29T22:01:31.105Z,0
2022-12-29T22:06:36.217Z,0
2022-12-29T22:11:42.294Z,0
2022-12-29T22:16:48.388Z,0
2022-12-29T22:21:54.483Z,0
2022-12-29T22:26:59.664Z,0
2022-12-29T22:32:04.700Z,0
2022-12-29T22:37:10.874Z,0
2022-12-29T22:42:16.879Z,0
2022-12-29T22:47:22.968Z,0
2022-12-29T22:52:29.126Z,0
2022-12-29T22:57:35.143Z,0
2022-12-29T23:02:41.227Z,0
2022-12-29T23:07:47.352Z,0
2022-12-29T23:12:53.413Z,0
2022-12-29T23:17:59.489Z,0
2022-12-29T23:23:05.583Z,0
2022-12-29T23:28:11.675Z,0
2022-12-29T23:33:17.777Z,0
2022-12-29T23:38:22.863Z,0
2022-12-29T23:43:28.956Z,0
2022-12-29T23:48:35.059Z,0
2022-12-29T23:53:41.132Z,0
2022-12-29T23:58:47.227Z,0
